To NAV CANADA Home Page Login to a new session Search on AWWS site Feedback and Comments Disclaimer Vers la page française équivalente Tips FAQ What's new on the site To the Forecasts and Observations / NOTAM section To "File a Flight Plan" website Publications and other links Update of the User's profile FIC Telephone Numbers My Weather Data Folder Route Weather Data Regional Weather Data Local Weather Data To the Forecasts and Observations / NOTAM section
Request Generated 05/26/2015 at 09:19:03 UTC . Weather information available at that time is displayed.

METAR/TAF

REGINA/REGINA INTL/SK    

METAR CYQR 260900Z 25008KT 15SM SKC 12/06 A2985 RMK SLP112 DENSITY
ALT 2000FT=
METAR CYQR 260800Z 26009KT 15SM SKC 13/05 A2985 RMK SLP110 DENSITY
ALT 2100FT=
METAR CYQR 260700Z 21007KT 15SM SKC 13/03 A2985 RMK SLP112 DENSITY
ALT 2100FT=

TAF CYQR 260538Z 2606/2706 20008KT P6SM FEW090 SCT280
FM261800 30010KT P6SM SCT100 TEMPO 2618/2703 VRB20G30KT P6SM VCSH
BKN090
BECMG 2703/2705 08008KT
RMK NXT FCST BY 261200Z=
Your time UTC time
Weather data provided by Environment Canada and NAV CANADA